sensor_id;sensor_type;location;lat;lon;timestamp;P1;durP1;ratioP1;P2;durP2;ratioP2
3791;SDS011;1911;53.768;11.474;2023-06-05T00:02:11;8.00;;;4.70;;
3791;SDS011;1911;53.768;11.474;2023-06-05T00:04:36;10.13;;;5.33;;
3791;SDS011;1911;53.768;11.474;2023-06-05T00:07:04;5.13;;;3.60;;
3791;SDS011;1911;53.768;11.474;2023-06-05T00:09:30;6.23;;;3.90;;
3791;SDS011;1911;53.768;11.474;2023-06-05T00:11:55;6.80;;;4.90;;
3791;SDS011;1911;53.768;11.474;2023-06-05T00:14:21;8.40;;;4.50;;
3791;SDS011;1911;53.768;11.474;2023-06-05T00:16:47;10.60;;;5.17;;
3791;SDS011;1911;53.768;11.474;2023-06-05T00:19:14;12.07;;;4.70;;
3791;SDS011;1911;53.768;11.474;2023-06-05T00:21:40;7.03;;;4.77;;
3791;SDS011;1911;53.768;11.474;2023-06-05T00:24:06;11.97;;;5.10;;
3791;SDS011;1911;53.768;11.474;2023-06-05T00:26:31;6.00;;;4.17;;
3791;SDS011;1911;53.768;11.474;2023-06-05T00:28:57;6.00;;;4.30;;
3791;SDS011;1911;53.768;11.474;2023-06-05T00:31:22;4.67;;;3.67;;
3791;SDS011;1911;53.768;11.474;2023-06-05T00:33:48;8.63;;;5.50;;
3791;SDS011;1911;53.768;11.474;2023-06-05T00:36:15;8.17;;;4.80;;
3791;SDS011;1911;53.768;11.474;2023-06-05T00:38:42;8.27;;;4.83;;
3791;SDS011;1911;53.768;11.474;2023-06-05T00:41:08;9.67;;;4.40;;
3791;SDS011;1911;53.768;11.474;2023-06-05T00:43:34;5.17;;;3.83;;
3791;SDS011;1911;53.768;11.474;2023-06-05T00:46:00;7.30;;;4.87;;
3791;SDS011;1911;53.768;11.474;2023-06-05T00:48:28;8.60;;;5.00;;
3791;SDS011;1911;53.768;11.474;2023-06-05T00:50:55;7.40;;;5.20;;
3791;SDS011;1911;53.768;11.474;2023-06-05T00:53:22;6.93;;;4.27;;
3791;SDS011;1911;53.768;11.474;2023-06-05T00:55:49;6.13;;;4.80;;
3791;SDS011;1911;53.768;11.474;2023-06-05T00:58:15;5.50;;;3.83;;
3791;SDS011;1911;53.768;11.474;2023-06-05T01:00:42;38.90;;;7.50;;
3791;SDS011;1911;53.768;11.474;2023-06-05T01:03:09;8.60;;;4.97;;
3791;SDS011;1911;53.768;11.474;2023-06-05T01:05:36;5.70;;;4.20;;
3791;SDS011;1911;53.768;11.474;2023-06-05T01:08:02;11.97;;;4.83;;
3791;SDS011;1911;53.768;11.474;2023-06-05T01:10:30;8.90;;;4.30;;
3791;SDS011;1911;53.768;11.474;2023-06-05T01:15:46;6.27;;;4.40;;
3791;SDS011;1911;53.768;11.474;2023-06-05T01:18:13;8.40;;;4.63;;
3791;SDS011;1911;53.768;11.474;2023-06-05T01:20:39;7.47;;;4.47;;
3791;SDS011;1911;53.768;11.474;2023-06-05T01:23:06;9.70;;;5.60;;
3791;SDS011;1911;53.768;11.474;2023-06-05T01:25:36;6.33;;;4.30;;
3791;SDS011;1911;53.768;11.474;2023-06-05T01:28:20;11.27;;;5.50;;
3791;SDS011;1911;53.768;11.474;2023-06-05T01:30:54;7.60;;;4.87;;
3791;SDS011;1911;53.768;11.474;2023-06-05T01:36:09;7.60;;;5.00;;
3791;SDS011;1911;53.768;11.474;2023-06-05T01:38:36;11.37;;;5.20;;
3791;SDS011;1911;53.768;11.474;2023-06-05T01:41:04;11.53;;;5.63;;
3791;SDS011;1911;53.768;11.474;2023-06-05T01:43:31;6.70;;;5.00;;
3791;SDS011;1911;53.768;11.474;2023-06-05T01:45:58;8.93;;;5.13;;
3791;SDS011;1911;53.768;11.474;2023-06-05T01:48:25;8.47;;;5.23;;
3791;SDS011;1911;53.768;11.474;2023-06-05T01:50:58;6.50;;;4.53;;
3791;SDS011;1911;53.768;11.474;2023-06-05T01:53:25;8.60;;;5.00;;
3791;SDS011;1911;53.768;11.474;2023-06-05T01:55:52;9.27;;;6.37;;
3791;SDS011;1911;53.768;11.474;2023-06-05T01:58:22;8.77;;;5.43;;
3791;SDS011;1911;53.768;11.474;2023-06-05T02:00:48;9.67;;;4.60;;
3791;SDS011;1911;53.768;11.474;2023-06-05T02:03:14;7.40;;;5.90;;
3791;SDS011;1911;53.768;11.474;2023-06-05T02:05:43;10.03;;;4.90;;
3791;SDS011;1911;53.768;11.474;2023-06-05T02:08:08;8.60;;;4.97;;
3791;SDS011;1911;53.768;11.474;2023-06-05T02:10:35;5.40;;;4.33;;
3791;SDS011;1911;53.768;11.474;2023-06-05T02:13:02;11.07;;;4.60;;
3791;SDS011;1911;53.768;11.474;2023-06-05T02:15:28;10.40;;;6.20;;
3791;SDS011;1911;53.768;11.474;2023-06-05T02:17:57;7.10;;;4.67;;
3791;SDS011;1911;53.768;11.474;2023-06-05T02:20:27;10.67;;;5.00;;
3791;SDS011;1911;53.768;11.474;2023-06-05T02:22:53;9.37;;;5.50;;
3791;SDS011;1911;53.768;11.474;2023-06-05T02:25:20;9.53;;;5.23;;
3791;SDS011;1911;53.768;11.474;2023-06-05T02:27:46;9.13;;;5.10;;
3791;SDS011;1911;53.768;11.474;2023-06-05T02:30:12;9.10;;;5.57;;
3791;SDS011;1911;53.768;11.474;2023-06-05T02:32:38;9.87;;;6.03;;
3791;SDS011;1911;53.768;11.474;2023-06-05T02:35:09;12.73;;;5.87;;
3791;SDS011;1911;53.768;11.474;2023-06-05T02:37:35;8.90;;;5.83;;
3791;SDS011;1911;53.768;11.474;2023-06-05T02:40:08;13.97;;;6.50;;
3791;SDS011;1911;53.768;11.474;2023-06-05T02:42:36;6.87;;;5.50;;
3791;SDS011;1911;53.768;11.474;2023-06-05T02:45:02;16.63;;;6.23;;
3791;SDS011;1911;53.768;11.474;2023-06-05T02:47:28;11.90;;;7.60;;
3791;SDS011;1911;53.768;11.474;2023-06-05T02:49:54;12.57;;;7.17;;
3791;SDS011;1911;53.768;11.474;2023-06-05T02:52:21;11.30;;;7.00;;
3791;SDS011;1911;53.768;11.474;2023-06-05T02:54:47;13.07;;;7.60;;
3791;SDS011;1911;53.768;11.474;2023-06-05T02:57:13;11.37;;;7.40;;
3791;SDS011;1911;53.768;11.474;2023-06-05T02:59:40;12.63;;;7.10;;
3791;SDS011;1911;53.768;11.474;2023-06-05T03:02:06;14.47;;;8.60;;
3791;SDS011;1911;53.768;11.474;2023-06-05T03:04:32;12.47;;;7.70;;
3791;SDS011;1911;53.768;11.474;2023-06-05T03:06:57;12.97;;;7.70;;
3791;SDS011;1911;53.768;11.474;2023-06-05T03:09:29;17.43;;;8.20;;
3791;SDS011;1911;53.768;11.474;2023-06-05T03:11:55;14.07;;;8.03;;
3791;SDS011;1911;53.768;11.474;2023-06-05T03:14:21;13.07;;;7.30;;
3791;SDS011;1911;53.768;11.474;2023-06-05T03:16:47;11.67;;;8.33;;
3791;SDS011;1911;53.768;11.474;2023-06-05T03:19:13;14.63;;;7.80;;
3791;SDS011;1911;53.768;11.474;2023-06-05T03:21:38;11.37;;;7.07;;
3791;SDS011;1911;53.768;11.474;2023-06-05T03:24:12;21.93;;;7.50;;
3791;SDS011;1911;53.768;11.474;2023-06-05T03:26:42;15.43;;;7.00;;
3791;SDS011;1911;53.768;11.474;2023-06-05T03:29:09;10.80;;;7.17;;
3791;SDS011;1911;53.768;11.474;2023-06-05T03:31:36;13.20;;;10.30;;
3791;SDS011;1911;53.768;11.474;2023-06-05T03:34:01;11.23;;;7.23;;
3791;SDS011;1911;53.768;11.474;2023-06-05T03:36:28;17.10;;;7.10;;
3791;SDS011;1911;53.768;11.474;2023-06-05T03:38:55;16.00;;;7.63;;
3791;SDS011;1911;53.768;11.474;2023-06-05T03:41:21;13.73;;;8.10;;
3791;SDS011;1911;53.768;11.474;2023-06-05T03:43:48;17.57;;;9.70;;
3791;SDS011;1911;53.768;11.474;2023-06-05T03:46:14;12.37;;;6.63;;
3791;SDS011;1911;53.768;11.474;2023-06-05T03:48:47;8.17;;;6.30;;
3791;SDS011;1911;53.768;11.474;2023-06-05T03:51:23;12.80;;;7.30;;
3791;SDS011;1911;53.768;11.474;2023-06-05T03:53:54;10.47;;;6.93;;
3791;SDS011;1911;53.768;11.474;2023-06-05T03:56:21;15.43;;;7.73;;
3791;SDS011;1911;53.768;11.474;2023-06-05T03:58:48;11.67;;;8.27;;
3791;SDS011;1911;53.768;11.474;2023-06-05T04:01:14;15.93;;;8.40;;
3791;SDS011;1911;53.768;11.474;2023-06-05T04:03:40;14.13;;;8.07;;
3791;SDS011;1911;53.768;11.474;2023-06-05T04:06:05;17.70;;;8.53;;
3791;SDS011;1911;53.768;11.474;2023-06-05T04:08:35;15.20;;;7.43;;
3791;SDS011;1911;53.768;11.474;2023-06-05T04:11:02;16.93;;;8.00;;
3791;SDS011;1911;53.768;11.474;2023-06-05T04:13:27;11.20;;;8.67;;
3791;SDS011;1911;53.768;11.474;2023-06-05T04:15:53;13.83;;;7.10;;
3791;SDS011;1911;53.768;11.474;2023-06-05T04:18:18;14.07;;;7.93;;
3791;SDS011;1911;53.768;11.474;2023-06-05T04:20:44;12.53;;;8.47;;
3791;SDS011;1911;53.768;11.474;2023-06-05T04:23:09;12.97;;;9.27;;
3791;SDS011;1911;53.768;11.474;2023-06-05T04:25:35;15.43;;;8.70;;
3791;SDS011;1911;53.768;11.474;2023-06-05T04:28:00;14.87;;;9.10;;
3791;SDS011;1911;53.768;11.474;2023-06-05T04:30:26;10.40;;;7.90;;
3791;SDS011;1911;53.768;11.474;2023-06-05T04:32:54;11.13;;;8.00;;
3791;SDS011;1911;53.768;11.474;2023-06-05T04:35:20;15.40;;;9.27;;
3791;SDS011;1911;53.768;11.474;2023-06-05T04:37:47;16.10;;;8.93;;
3791;SDS011;1911;53.768;11.474;2023-06-05T04:40:13;15.87;;;9.40;;
3791;SDS011;1911;53.768;11.474;2023-06-05T04:42:41;21.63;;;9.97;;
3791;SDS011;1911;53.768;11.474;2023-06-05T04:45:07;16.63;;;11.13;;
3791;SDS011;1911;53.768;11.474;2023-06-05T04:47:33;15.17;;;11.13;;
3791;SDS011;1911;53.768;11.474;2023-06-05T04:49:59;16.17;;;11.13;;
3791;SDS011;1911;53.768;11.474;2023-06-05T04:52:28;16.67;;;10.87;;
3791;SDS011;1911;53.768;11.474;2023-06-05T04:54:58;18.90;;;12.00;;
3791;SDS011;1911;53.768;11.474;2023-06-05T04:57:27;24.43;;;12.83;;
3791;SDS011;1911;53.768;11.474;2023-06-05T04:59:54;18.87;;;12.43;;
3791;SDS011;1911;53.768;11.474;2023-06-05T05:02:21;26.13;;;12.30;;
3791;SDS011;1911;53.768;11.474;2023-06-05T05:04:47;21.03;;;11.10;;
3791;SDS011;1911;53.768;11.474;2023-06-05T05:07:13;20.07;;;12.07;;
3791;SDS011;1911;53.768;11.474;2023-06-05T05:09:41;18.57;;;10.63;;
3791;SDS011;1911;53.768;11.474;2023-06-05T05:12:07;17.60;;;11.27;;
3791;SDS011;1911;53.768;11.474;2023-06-05T05:14:34;20.73;;;11.23;;
3791;SDS011;1911;53.768;11.474;2023-06-05T05:17:00;15.87;;;10.70;;
3791;SDS011;1911;53.768;11.474;2023-06-05T05:19:26;17.00;;;10.50;;
3791;SDS011;1911;53.768;11.474;2023-06-05T05:21:52;24.23;;;14.20;;
3791;SDS011;1911;53.768;11.474;2023-06-05T05:24:18;20.07;;;15.43;;
3791;SDS011;1911;53.768;11.474;2023-06-05T05:26:43;18.57;;;14.63;;
3791;SDS011;1911;53.768;11.474;2023-06-05T05:29:09;18.03;;;12.20;;
3791;SDS011;1911;53.768;11.474;2023-06-05T05:31:35;17.50;;;13.37;;
3791;SDS011;1911;53.768;11.474;2023-06-05T05:34:01;21.67;;;14.90;;
3791;SDS011;1911;53.768;11.474;2023-06-05T05:36:26;16.87;;;13.10;;
3791;SDS011;1911;53.768;11.474;2023-06-05T05:38:52;14.83;;;11.57;;
3791;SDS011;1911;53.768;11.474;2023-06-05T05:41:18;13.20;;;11.37;;
3791;SDS011;1911;53.768;11.474;2023-06-05T05:43:44;13.10;;;10.87;;
3791;SDS011;1911;53.768;11.474;2023-06-05T05:46:10;11.80;;;10.00;;
3791;SDS011;1911;53.768;11.474;2023-06-05T05:48:36;12.20;;;10.03;;
3791;SDS011;1911;53.768;11.474;2023-06-05T05:51:02;11.83;;;9.53;;
3791;SDS011;1911;53.768;11.474;2023-06-05T05:53:27;12.07;;;8.90;;
3791;SDS011;1911;53.768;11.474;2023-06-05T05:55:53;12.37;;;10.20;;
3791;SDS011;1911;53.768;11.474;2023-06-05T05:58:19;13.30;;;9.00;;
3791;SDS011;1911;53.768;11.474;2023-06-05T06:00:45;9.97;;;8.97;;
3791;SDS011;1911;53.768;11.474;2023-06-05T06:03:11;11.50;;;9.10;;
3791;SDS011;1911;53.768;11.474;2023-06-05T06:05:38;13.17;;;8.47;;
3791;SDS011;1911;53.768;11.474;2023-06-05T06:08:04;13.23;;;9.13;;
3791;SDS011;1911;53.768;11.474;2023-06-05T06:10:30;10.00;;;8.20;;
3791;SDS011;1911;53.768;11.474;2023-06-05T06:12:56;13.20;;;9.10;;
3791;SDS011;1911;53.768;11.474;2023-06-05T06:15:21;13.90;;;9.00;;
3791;SDS011;1911;53.768;11.474;2023-06-05T06:17:47;9.60;;;6.80;;
3791;SDS011;1911;53.768;11.474;2023-06-05T06:20:13;11.83;;;7.90;;
3791;SDS011;1911;53.768;11.474;2023-06-05T06:22:40;10.83;;;7.80;;
3791;SDS011;1911;53.768;11.474;2023-06-05T06:25:07;10.77;;;6.67;;
3791;SDS011;1911;53.768;11.474;2023-06-05T06:27:37;8.80;;;7.37;;
3791;SDS011;1911;53.768;11.474;2023-06-05T06:30:03;7.37;;;6.47;;
3791;SDS011;1911;53.768;11.474;2023-06-05T06:32:30;7.73;;;5.87;;
3791;SDS011;1911;53.768;11.474;2023-06-05T06:34:56;9.43;;;6.57;;
3791;SDS011;1911;53.768;11.474;2023-06-05T06:37:22;15.10;;;8.63;;
3791;SDS011;1911;53.768;11.474;2023-06-05T06:39:47;11.00;;;6.70;;
3791;SDS011;1911;53.768;11.474;2023-06-05T06:42:13;14.13;;;7.80;;
3791;SDS011;1911;53.768;11.474;2023-06-05T06:44:39;8.90;;;6.70;;
3791;SDS011;1911;53.768;11.474;2023-06-05T06:47:05;7.40;;;6.17;;
3791;SDS011;1911;53.768;11.474;2023-06-05T06:49:31;9.67;;;7.47;;
3791;SDS011;1911;53.768;11.474;2023-06-05T06:51:58;11.50;;;8.10;;
3791;SDS011;1911;53.768;11.474;2023-06-05T06:54:23;7.40;;;6.37;;
3791;SDS011;1911;53.768;11.474;2023-06-05T06:56:51;6.60;;;5.13;;
3791;SDS011;1911;53.768;11.474;2023-06-05T06:59:16;5.80;;;4.37;;
3791;SDS011;1911;53.768;11.474;2023-06-05T07:01:43;10.20;;;6.23;;
3791;SDS011;1911;53.768;11.474;2023-06-05T07:04:19;5.77;;;4.97;;
3791;SDS011;1911;53.768;11.474;2023-06-05T07:06:46;7.53;;;5.03;;
3791;SDS011;1911;53.768;11.474;2023-06-05T07:09:13;8.40;;;4.90;;
3791;SDS011;1911;53.768;11.474;2023-06-05T07:11:39;5.10;;;4.40;;
3791;SDS011;1911;53.768;11.474;2023-06-05T07:14:05;7.17;;;3.60;;
3791;SDS011;1911;53.768;11.474;2023-06-05T07:16:32;3.43;;;2.30;;
3791;SDS011;1911;53.768;11.474;2023-06-05T07:19:01;5.53;;;3.53;;
3791;SDS011;1911;53.768;11.474;2023-06-05T07:21:28;4.20;;;2.40;;
3791;SDS011;1911;53.768;11.474;2023-06-05T07:23:53;3.87;;;2.57;;
3791;SDS011;1911;53.768;11.474;2023-06-05T07:26:19;5.67;;;2.80;;
3791;SDS011;1911;53.768;11.474;2023-06-05T07:28:46;4.87;;;3.07;;
3791;SDS011;1911;53.768;11.474;2023-06-05T07:31:13;6.10;;;2.80;;
3791;SDS011;1911;53.768;11.474;2023-06-05T07:33:39;5.73;;;3.63;;
3791;SDS011;1911;53.768;11.474;2023-06-05T07:36:06;4.97;;;2.93;;
3791;SDS011;1911;53.768;11.474;2023-06-05T07:38:32;3.13;;;2.60;;
3791;SDS011;1911;53.768;11.474;2023-06-05T07:40:58;4.80;;;3.43;;
3791;SDS011;1911;53.768;11.474;2023-06-05T07:43:26;4.80;;;2.70;;
3791;SDS011;1911;53.768;11.474;2023-06-05T07:45:52;4.90;;;2.70;;
3791;SDS011;1911;53.768;11.474;2023-06-05T07:48:18;3.70;;;3.20;;
3791;SDS011;1911;53.768;11.474;2023-06-05T07:50:44;4.67;;;3.03;;
3791;SDS011;1911;53.768;11.474;2023-06-05T07:53:10;4.90;;;3.83;;
3791;SDS011;1911;53.768;11.474;2023-06-05T07:55:35;3.10;;;2.80;;
3791;SDS011;1911;53.768;11.474;2023-06-05T07:58:01;4.60;;;3.50;;
3791;SDS011;1911;53.768;11.474;2023-06-05T08:00:27;4.73;;;2.70;;
3791;SDS011;1911;53.768;11.474;2023-06-05T08:02:53;6.10;;;2.77;;
3791;SDS011;1911;53.768;11.474;2023-06-05T08:05:18;6.50;;;2.10;;
3791;SDS011;1911;53.768;11.474;2023-06-05T08:07:44;4.33;;;2.10;;
3791;SDS011;1911;53.768;11.474;2023-06-05T08:10:10;4.40;;;2.30;;
3791;SDS011;1911;53.768;11.474;2023-06-05T08:12:37;4.03;;;2.33;;
3791;SDS011;1911;53.768;11.474;2023-06-05T08:15:02;5.20;;;2.67;;
3791;SDS011;1911;53.768;11.474;2023-06-05T08:17:28;3.90;;;2.40;;
3791;SDS011;1911;53.768;11.474;2023-06-05T08:19:54;7.10;;;2.33;;
3791;SDS011;1911;53.768;11.474;2023-06-05T08:22:19;4.37;;;2.70;;
3791;SDS011;1911;53.768;11.474;2023-06-05T08:24:45;3.97;;;2.33;;
3791;SDS011;1911;53.768;11.474;2023-06-05T08:27:13;3.53;;;2.13;;
3791;SDS011;1911;53.768;11.474;2023-06-05T08:29:39;6.13;;;2.33;;
3791;SDS011;1911;53.768;11.474;2023-06-05T08:32:04;3.50;;;2.43;;
3791;SDS011;1911;53.768;11.474;2023-06-05T08:34:30;4.33;;;2.87;;
3791;SDS011;1911;53.768;11.474;2023-06-05T08:36:57;5.87;;;2.90;;
3791;SDS011;1911;53.768;11.474;2023-06-05T08:39:25;2.33;;;1.80;;
3791;SDS011;1911;53.768;11.474;2023-06-05T08:41:56;3.23;;;1.90;;
3791;SDS011;1911;53.768;11.474;2023-06-05T08:44:25;2.53;;;1.63;;
3791;SDS011;1911;53.768;11.474;2023-06-05T08:46:55;3.50;;;2.13;;
3791;SDS011;1911;53.768;11.474;2023-06-05T08:49:29;3.43;;;1.70;;
3791;SDS011;1911;53.768;11.474;2023-06-05T08:52:01;5.80;;;1.73;;
3791;SDS011;1911;53.768;11.474;2023-06-05T08:54:36;2.63;;;1.50;;
3791;SDS011;1911;53.768;11.474;2023-06-05T08:57:03;2.37;;;1.53;;
3791;SDS011;1911;53.768;11.474;2023-06-05T08:59:31;2.63;;;1.50;;
3791;SDS011;1911;53.768;11.474;2023-06-05T09:01:58;3.90;;;1.57;;
3791;SDS011;1911;53.768;11.474;2023-06-05T09:04:23;2.47;;;1.40;;
3791;SDS011;1911;53.768;11.474;2023-06-05T09:06:50;3.40;;;1.60;;
3791;SDS011;1911;53.768;11.474;2023-06-05T09:09:19;4.37;;;1.50;;
3791;SDS011;1911;53.768;11.474;2023-06-05T09:11:45;3.53;;;2.27;;
3791;SDS011;1911;53.768;11.474;2023-06-05T09:14:11;3.40;;;1.90;;
3791;SDS011;1911;53.768;11.474;2023-06-05T09:16:38;3.80;;;1.63;;
3791;SDS011;1911;53.768;11.474;2023-06-05T09:19:07;4.67;;;1.60;;
3791;SDS011;1911;53.768;11.474;2023-06-05T09:21:33;2.70;;;1.63;;
3791;SDS011;1911;53.768;11.474;2023-06-05T09:24:18;2.63;;;1.83;;
3791;SDS011;1911;53.768;11.474;2023-06-05T09:26:46;4.00;;;1.47;;
3791;SDS011;1911;53.768;11.474;2023-06-05T09:30:01;2.10;;;1.40;;
3791;SDS011;1911;53.768;11.474;2023-06-05T09:34:35;1.97;;;1.70;;
3791;SDS011;1911;53.768;11.474;2023-06-05T09:37:01;5.70;;;2.17;;
3791;SDS011;1911;53.768;11.474;2023-06-05T09:39:29;3.53;;;1.53;;
3791;SDS011;1911;53.768;11.474;2023-06-05T09:41:57;3.77;;;1.77;;
3791;SDS011;1911;53.768;11.474;2023-06-05T09:44:23;2.60;;;1.40;;
3791;SDS011;1911;53.768;11.474;2023-06-05T09:49:23;6.03;;;1.83;;
3791;SDS011;1911;53.768;11.474;2023-06-05T09:51:50;2.70;;;1.40;;
3791;SDS011;1911;53.768;11.474;2023-06-05T09:54:16;2.57;;;1.60;;
3791;SDS011;1911;53.768;11.474;2023-06-05T09:56:46;2.23;;;1.50;;
3791;SDS011;1911;53.768;11.474;2023-06-05T09:59:18;2.57;;;1.80;;
3791;SDS011;1911;53.768;11.474;2023-06-05T10:01:46;3.30;;;1.80;;
3791;SDS011;1911;53.768;11.474;2023-06-05T10:04:22;4.97;;;1.30;;
3791;SDS011;1911;53.768;11.474;2023-06-05T10:06:50;4.57;;;1.97;;
3791;SDS011;1911;53.768;11.474;2023-06-05T10:09:17;3.30;;;2.20;;
3791;SDS011;1911;53.768;11.474;2023-06-05T10:11:43;2.10;;;1.40;;
3791;SDS011;1911;53.768;11.474;2023-06-05T10:14:08;2.77;;;1.30;;
3791;SDS011;1911;53.768;11.474;2023-06-05T10:16:34;2.17;;;1.20;;
3791;SDS011;1911;53.768;11.474;2023-06-05T10:19:01;4.13;;;1.50;;
3791;SDS011;1911;53.768;11.474;2023-06-05T10:21:28;2.63;;;1.20;;
3791;SDS011;1911;53.768;11.474;2023-06-05T10:23:58;7.00;;;1.60;;
3791;SDS011;1911;53.768;11.474;2023-06-05T10:26:39;2.37;;;1.20;;
3791;SDS011;1911;53.768;11.474;2023-06-05T10:31:47;2.33;;;1.40;;
3791;SDS011;1911;53.768;11.474;2023-06-05T10:34:23;1.70;;;1.00;;
3791;SDS011;1911;53.768;11.474;2023-06-05T10:39:49;2.13;;;1.53;;
3791;SDS011;1911;53.768;11.474;2023-06-05T10:42:27;5.17;;;2.83;;
3791;SDS011;1911;53.768;11.474;2023-06-05T10:44:54;2.30;;;1.70;;
3791;SDS011;1911;53.768;11.474;2023-06-05T10:52:46;5.70;;;2.70;;
3791;SDS011;1911;53.768;11.474;2023-06-05T10:55:15;4.67;;;3.23;;
3791;SDS011;1911;53.768;11.474;2023-06-05T11:01:15;9.43;;;4.37;;
3791;SDS011;1911;53.768;11.474;2023-06-05T11:06:21;6.70;;;3.60;;
3791;SDS011;1911;53.768;11.474;2023-06-05T11:09:09;6.40;;;3.80;;
3791;SDS011;1911;53.768;11.474;2023-06-05T11:11:55;4.70;;;3.73;;
3791;SDS011;1911;53.768;11.474;2023-06-05T11:14:25;4.60;;;3.77;;
3791;SDS011;1911;53.768;11.474;2023-06-05T11:17:52;9.40;;;3.70;;
3791;SDS011;1911;53.768;11.474;2023-06-05T11:20:06;5.73;;;3.57;;
3791;SDS011;1911;53.768;11.474;2023-06-05T11:23:06;5.93;;;4.10;;
3791;SDS011;1911;53.768;11.474;2023-06-05T11:27:54;4.50;;;3.40;;
3791;SDS011;1911;53.768;11.474;2023-06-05T11:30:26;4.80;;;3.53;;
3791;SDS011;1911;53.768;11.474;2023-06-05T11:32:56;7.20;;;3.10;;
3791;SDS011;1911;53.768;11.474;2023-06-05T11:35:30;5.63;;;3.30;;
3791;SDS011;1911;53.768;11.474;2023-06-05T11:40:36;9.67;;;2.87;;
3791;SDS011;1911;53.768;11.474;2023-06-05T11:43:07;3.67;;;2.50;;
3791;SDS011;1911;53.768;11.474;2023-06-05T11:45:35;7.20;;;3.00;;
3791;SDS011;1911;53.768;11.474;2023-06-05T11:48:12;4.33;;;2.80;;
3791;SDS011;1911;53.768;11.474;2023-06-05T11:50:40;5.37;;;3.07;;
3791;SDS011;1911;53.768;11.474;2023-06-05T11:53:21;4.63;;;1.97;;
3791;SDS011;1911;53.768;11.474;2023-06-05T11:55:48;5.47;;;2.93;;
3791;SDS011;1911;53.768;11.474;2023-06-05T11:58:19;4.87;;;2.77;;
3791;SDS011;1911;53.768;11.474;2023-06-05T12:00:47;7.80;;;3.27;;
3791;SDS011;1911;53.768;11.474;2023-06-05T12:03:22;5.67;;;2.90;;
3791;SDS011;1911;53.768;11.474;2023-06-05T12:05:49;4.10;;;2.67;;
3791;SDS011;1911;53.768;11.474;2023-06-05T12:08:21;38.83;;;3.80;;
3791;SDS011;1911;53.768;11.474;2023-06-05T12:10:47;3.20;;;2.50;;
3791;SDS011;1911;53.768;11.474;2023-06-05T12:13:13;5.40;;;3.37;;
3791;SDS011;1911;53.768;11.474;2023-06-05T12:15:40;4.00;;;2.87;;
3791;SDS011;1911;53.768;11.474;2023-06-05T12:18:05;4.50;;;3.50;;
3791;SDS011;1911;53.768;11.474;2023-06-05T12:20:31;4.30;;;2.80;;
3791;SDS011;1911;53.768;11.474;2023-06-05T12:23:04;4.30;;;2.97;;
3791;SDS011;1911;53.768;11.474;2023-06-05T12:25:30;3.10;;;2.30;;
3791;SDS011;1911;53.768;11.474;2023-06-05T12:27:56;5.17;;;3.30;;
3791;SDS011;1911;53.768;11.474;2023-06-05T12:30:21;4.20;;;3.17;;
3791;SDS011;1911;53.768;11.474;2023-06-05T12:32:47;3.40;;;2.43;;
3791;SDS011;1911;53.768;11.474;2023-06-05T12:35:23;8.17;;;3.23;;
3791;SDS011;1911;53.768;11.474;2023-06-05T12:37:50;5.80;;;3.23;;
3791;SDS011;1911;53.768;11.474;2023-06-05T12:40:17;6.20;;;2.70;;
3791;SDS011;1911;53.768;11.474;2023-06-05T12:42:46;3.90;;;2.83;;
3791;SDS011;1911;53.768;11.474;2023-06-05T12:45:13;5.23;;;3.30;;
3791;SDS011;1911;53.768;11.474;2023-06-05T12:47:40;5.50;;;2.90;;
3791;SDS011;1911;53.768;11.474;2023-06-05T12:50:06;6.83;;;2.80;;
3791;SDS011;1911;53.768;11.474;2023-06-05T12:52:36;4.47;;;2.70;;
3791;SDS011;1911;53.768;11.474;2023-06-05T12:55:03;11.77;;;3.70;;
3791;SDS011;1911;53.768;11.474;2023-06-05T12:57:30;4.93;;;2.83;;
3791;SDS011;1911;53.768;11.474;2023-06-05T12:59:57;8.23;;;3.53;;
3791;SDS011;1911;53.768;11.474;2023-06-05T13:02:23;4.03;;;2.90;;
3791;SDS011;1911;53.768;11.474;2023-06-05T13:04:49;5.37;;;2.80;;
3791;SDS011;1911;53.768;11.474;2023-06-05T13:07:15;5.73;;;2.97;;
3791;SDS011;1911;53.768;11.474;2023-06-05T13:09:41;5.20;;;3.00;;
3791;SDS011;1911;53.768;11.474;2023-06-05T13:12:07;3.27;;;2.30;;
3791;SDS011;1911;53.768;11.474;2023-06-05T13:14:33;6.20;;;3.03;;
3791;SDS011;1911;53.768;11.474;2023-06-05T13:16:59;5.20;;;2.97;;
3791;SDS011;1911;53.768;11.474;2023-06-05T13:19:26;8.03;;;2.67;;
3791;SDS011;1911;53.768;11.474;2023-06-05T13:21:51;5.20;;;3.70;;
3791;SDS011;1911;53.768;11.474;2023-06-05T13:24:18;5.80;;;3.00;;
3791;SDS011;1911;53.768;11.474;2023-06-05T13:26:44;6.20;;;2.80;;
3791;SDS011;1911;53.768;11.474;2023-06-05T13:29:11;6.37;;;2.80;;
3791;SDS011;1911;53.768;11.474;2023-06-05T13:31:38;4.67;;;2.90;;
3791;SDS011;1911;53.768;11.474;2023-06-05T13:34:05;6.40;;;2.57;;
3791;SDS011;1911;53.768;11.474;2023-06-05T13:36:30;2.90;;;2.07;;
3791;SDS011;1911;53.768;11.474;2023-06-05T13:38:56;7.13;;;3.07;;
3791;SDS011;1911;53.768;11.474;2023-06-05T13:41:22;4.00;;;3.13;;
3791;SDS011;1911;53.768;11.474;2023-06-05T13:51:26;4.97;;;1.90;;
3791;SDS011;1911;53.768;11.474;2023-06-05T13:53:53;4.33;;;3.00;;
3791;SDS011;1911;53.768;11.474;2023-06-05T13:56:21;5.63;;;3.00;;
3791;SDS011;1911;53.768;11.474;2023-06-05T13:58:47;7.80;;;2.67;;
3791;SDS011;1911;53.768;11.474;2023-06-05T14:01:12;8.80;;;3.80;;
3791;SDS011;1911;53.768;11.474;2023-06-05T14:03:38;6.77;;;3.60;;
3791;SDS011;1911;53.768;11.474;2023-06-05T14:06:04;4.93;;;3.00;;
3791;SDS011;1911;53.768;11.474;2023-06-05T14:08:30;3.50;;;2.60;;
3791;SDS011;1911;53.768;11.474;2023-06-05T14:10:58;5.97;;;2.90;;
3791;SDS011;1911;53.768;11.474;2023-06-05T14:13:24;3.70;;;2.57;;
3791;SDS011;1911;53.768;11.474;2023-06-05T14:15:49;3.93;;;2.60;;
3791;SDS011;1911;53.768;11.474;2023-06-05T14:18:15;6.37;;;2.70;;
3791;SDS011;1911;53.768;11.474;2023-06-05T14:20:41;4.10;;;2.50;;
3791;SDS011;1911;53.768;11.474;2023-06-05T14:23:06;4.87;;;2.13;;
3791;SDS011;1911;53.768;11.474;2023-06-05T14:25:32;2.83;;;2.50;;
3791;SDS011;1911;53.768;11.474;2023-06-05T14:27:57;4.87;;;2.63;;
3791;SDS011;1911;53.768;11.474;2023-06-05T14:30:24;5.93;;;2.57;;
3791;SDS011;1911;53.768;11.474;2023-06-05T14:32:52;4.83;;;3.10;;
3791;SDS011;1911;53.768;11.474;2023-06-05T14:35:17;4.83;;;2.80;;
3791;SDS011;1911;53.768;11.474;2023-06-05T14:37:44;4.83;;;2.60;;
3791;SDS011;1911;53.768;11.474;2023-06-05T14:40:10;3.50;;;2.10;;
3791;SDS011;1911;53.768;11.474;2023-06-05T14:42:36;4.70;;;3.50;;
3791;SDS011;1911;53.768;11.474;2023-06-05T14:45:02;6.17;;;3.40;;
3791;SDS011;1911;53.768;11.474;2023-06-05T14:47:28;5.73;;;2.10;;
3791;SDS011;1911;53.768;11.474;2023-06-05T14:49:53;5.20;;;2.70;;
3791;SDS011;1911;53.768;11.474;2023-06-05T14:52:19;3.90;;;2.60;;
3791;SDS011;1911;53.768;11.474;2023-06-05T14:54:45;3.30;;;1.97;;
3791;SDS011;1911;53.768;11.474;2023-06-05T14:57:10;5.50;;;1.90;;
3791;SDS011;1911;53.768;11.474;2023-06-05T14:59:36;2.40;;;1.60;;
3791;SDS011;1911;53.768;11.474;2023-06-05T15:02:02;7.93;;;2.47;;
3791;SDS011;1911;53.768;11.474;2023-06-05T15:04:27;4.90;;;2.57;;
3791;SDS011;1911;53.768;11.474;2023-06-05T15:06:53;3.00;;;1.77;;
3791;SDS011;1911;53.768;11.474;2023-06-05T15:09:20;2.30;;;1.57;;
3791;SDS011;1911;53.768;11.474;2023-06-05T15:11:46;4.93;;;2.33;;
3791;SDS011;1911;53.768;11.474;2023-06-05T15:14:11;4.87;;;1.73;;
3791;SDS011;1911;53.768;11.474;2023-06-05T15:16:37;3.10;;;1.70;;
3791;SDS011;1911;53.768;11.474;2023-06-05T15:19:03;2.87;;;1.83;;
3791;SDS011;1911;53.768;11.474;2023-06-05T15:21:29;3.20;;;1.30;;
3791;SDS011;1911;53.768;11.474;2023-06-05T15:23:55;4.27;;;1.50;;
3791;SDS011;1911;53.768;11.474;2023-06-05T15:26:20;4.10;;;1.90;;
3791;SDS011;1911;53.768;11.474;2023-06-05T15:28:46;3.30;;;2.10;;
3791;SDS011;1911;53.768;11.474;2023-06-05T15:31:12;5.43;;;2.13;;
3791;SDS011;1911;53.768;11.474;2023-06-05T15:33:38;3.97;;;1.70;;
3791;SDS011;1911;53.768;11.474;2023-06-05T15:36:04;3.20;;;1.67;;
3791;SDS011;1911;53.768;11.474;2023-06-05T15:38:30;2.90;;;1.73;;